Time;durP1;ratioP1;P1;durP2;ratioP2;P2;SDS_P1;SDS_P2;PMS_P1;PMS_P2;Temp;Humidity;BMP_temperature;BMP_pressure;BME280_temperature;BME280_humidity;BME280_pressure;Samples;Min_cycle;Max_cycle;Signal;HPM_P1;HPM_P2
2022/11/21 00:00:37;;;;;;;20.85;11.95;;;1.90;99.90;;;;;;5051530;28;20120;-62
2022/11/21 00:03:03;;;;;;;19.60;12.00;;;1.90;99.90;;;;;;5033731;28;20523;-62
2022/11/21 00:05:30;;;;;;;22.45;13.20;;;1.90;99.90;;;;;;5051414;28;20036;-61
2022/11/21 00:07:57;;;;;;;20.83;12.55;;;2.00;99.90;;;;;;5051696;28;20115;-61
2022/11/21 00:10:24;;;;;;;20.23;12.23;;;2.00;99.90;;;;;;5051662;28;20045;-62
2022/11/21 00:12:56;;;;;;;22.75;12.73;;;2.00;99.90;;;;;;5051484;28;20056;-62
2022/11/21 00:15:24;;;;;;;26.90;13.48;;;2.10;99.90;;;;;;5017131;28;20044;-61
2022/11/21 00:17:50;;;;;;;24.20;14.05;;;2.10;99.90;;;;;;5033984;28;20053;-60
2022/11/21 00:20:17;;;;;;;21.15;12.50;;;2.10;99.90;;;;;;5033814;28;20386;-61
2022/11/21 00:22:43;;;;;;;22.77;14.20;;;2.20;99.90;;;;;;5033575;28;20091;-61
2022/11/21 00:25:08;;;;;;;20.88;12.52;;;2.20;99.90;;;;;;5051412;28;20045;-61
2022/11/21 00:27:34;;;;;;;23.92;14.07;;;2.10;99.90;;;;;;5051319;28;20040;-62
2022/11/21 00:30:00;;;;;;;22.05;12.95;;;2.10;99.90;;;;;;5051555;28;20125;-61
2022/11/21 00:32:26;;;;;;;22.60;13.05;;;2.10;99.90;;;;;;5051601;28;20043;-61
2022/11/21 00:34:51;;;;;;;22.83;12.88;;;2.00;99.90;;;;;;5051420;28;20037;-61
2022/11/21 00:37:17;;;;;;;23.15;13.90;;;2.00;99.90;;;;;;5054526;28;20404;-61
2022/11/21 00:39:42;;;;;;;23.08;13.00;;;1.90;99.90;;;;;;5020786;28;20041;-62
2022/11/21 00:42:08;;;;;;;21.38;13.10;;;1.90;99.90;;;;;;5054833;28;20037;-62
2022/11/21 00:44:34;;;;;;;24.70;14.48;;;1.80;99.90;;;;;;5054725;28;20139;-61
2022/11/21 00:46:59;;;;;;;22.80;12.60;;;1.70;99.90;;;;;;5054528;28;20485;-62
2022/11/21 00:49:26;;;;;;;22.90;13.18;;;1.60;99.90;;;;;;5054578;28;20041;-61
2022/11/21 00:51:51;;;;;;;21.75;12.40;;;1.60;99.90;;;;;;5054927;28;20119;-60
2022/11/21 00:54:17;;;;;;;22.90;13.48;;;1.50;99.90;;;;;;5054681;28;20474;-61
2022/11/21 00:56:42;;;;;;;22.30;12.88;;;1.50;99.90;;;;;;5054534;28;20037;-65
2022/11/21 00:59:08;;;;;;;21.98;12.93;;;1.40;99.90;;;;;;5054769;28;20039;-64
2022/11/21 01:01:34;;;;;;;20.13;12.13;;;1.40;99.90;;;;;;5054216;28;20099;-61
2022/11/21 01:04:00;;;;;;;21.75;13.00;;;1.30;99.90;;;;;;5054146;28;20057;-61
2022/11/21 01:06:25;;;;;;;23.00;12.90;;;1.30;99.90;;;;;;5054543;28;20072;-62
2022/11/21 01:08:51;;;;;;;22.30;12.95;;;1.20;99.90;;;;;;5054447;28;20037;-61
2022/11/21 01:11:19;;;;;;;23.17;13.27;;;1.30;99.90;;;;;;5036271;28;20056;-61
2022/11/21 01:13:45;;;;;;;20.42;12.45;;;1.10;99.90;;;;;;5054066;28;20039;-61
2022/11/21 01:16:19;;;;;;;20.73;12.27;;;1.10;99.90;;;;;;5054045;28;20477;-61
2022/11/21 01:18:45;;;;;;;20.67;12.23;;;1.00;99.90;;;;;;5036502;28;20099;-62
2022/11/21 01:21:40;;;;;;;20.33;11.57;;;1.00;99.90;;;;;;5054235;28;20087;-62
2022/11/21 01:24:06;;;;;;;18.15;11.35;;;1.00;99.90;;;;;;5050003;28;20434;-62
2022/11/21 01:26:32;;;;;;;21.42;11.77;;;0.80;99.90;;;;;;5053881;28;20033;-61
2022/11/21 01:28:58;;;;;;;19.00;11.95;;;0.80;99.90;;;;;;5053860;28;20040;-61
2022/11/21 01:31:28;;;;;;;20.48;11.75;;;0.80;99.90;;;;;;5053953;28;20108;-62
2022/11/21 01:33:55;;;;;;;21.63;11.68;;;0.80;99.90;;;;;;5054162;28;20450;-61
2022/11/21 01:36:22;;;;;;;20.65;12.32;;;0.80;99.90;;;;;;5053924;28;20037;-61
2022/11/21 01:38:51;;;;;;;20.88;12.55;;;0.80;99.90;;;;;;5053808;28;20434;-61
2022/11/21 01:41:20;;;;;;;22.30;12.25;;;0.70;99.90;;;;;;5053781;28;20106;-62
2022/11/21 01:43:49;;;;;;;21.15;12.38;;;0.70;99.90;;;;;;5053836;28;20079;-61
2022/11/21 01:46:19;;;;;;;22.52;12.00;;;0.70;99.90;;;;;;5053155;28;20037;-61
2022/11/21 01:49:26;;;;;;;25.45;13.10;;;0.80;99.90;;;;;;5053548;28;20037;-61
2022/11/21 01:52:08;;;;;;;20.48;11.50;;;0.60;99.90;;;;;;5049308;28;20088;-46
2022/11/21 01:54:40;;;;;;;20.48;11.35;;;0.60;99.90;;;;;;5053606;28;20048;-47
2022/11/21 01:57:42;;;;;;;21.58;12.57;;;0.70;99.90;;;;;;5046691;28;20037;-46
2022/11/21 02:00:17;;;;;;;22.27;13.10;;;0.60;99.90;;;;;;5033300;28;20045;-46
2022/11/21 02:02:50;;;;;;;19.83;11.82;;;0.70;99.90;;;;;;5033413;28;20037;-47
2022/11/21 02:05:21;;;;;;;21.17;11.95;;;0.70;99.90;;;;;;5033154;28;20049;-49
2022/11/21 02:07:49;;;;;;;19.43;12.47;;;0.70;99.90;;;;;;5033443;28;20045;-46
2022/11/21 02:10:15;;;;;;;20.88;12.77;;;0.60;99.90;;;;;;5033552;28;20421;-46
2022/11/21 02:12:52;;;;;;;22.15;12.55;;;0.60;99.90;;;;;;5033095;28;20493;-46
2022/11/21 02:15:21;;;;;;;20.35;11.43;;;0.60;99.90;;;;;;5033385;28;20056;-48
2022/11/21 02:17:46;;;;;;;23.48;13.55;;;0.70;99.90;;;;;;5033134;28;20512;-48
2022/11/21 02:20:16;;;;;;;21.15;12.52;;;0.60;99.90;;;;;;5033045;28;20046;-46
2022/11/21 02:22:42;;;;;;;20.17;11.88;;;0.60;99.90;;;;;;5033291;28;20053;-48
2022/11/21 02:25:11;;;;;;;20.42;11.82;;;0.50;99.90;;;;;;5033237;28;20079;-46
2022/11/21 02:27:38;;;;;;;20.58;11.43;;;0.50;99.90;;;;;;5033069;28;20455;-46
2022/11/21 02:30:07;;;;;;;21.73;12.38;;;0.50;99.90;;;;;;5032931;28;20123;-51
2022/11/21 02:32:40;;;;;;;19.65;11.68;;;0.50;99.90;;;;;;5015018;28;20120;-50
2022/11/21 02:35:06;;;;;;;23.33;12.68;;;0.40;99.90;;;;;;5032681;28;20434;-51
2022/11/21 02:37:34;;;;;;;22.38;12.18;;;0.40;99.90;;;;;;5032892;28;20117;-47
2022/11/21 02:40:05;;;;;;;21.20;12.23;;;0.50;99.90;;;;;;5032690;28;20076;-47
2022/11/21 02:43:06;;;;;;;20.95;12.25;;;0.50;99.90;;;;;;5032876;28;20401;-46
2022/11/21 02:45:43;;;;;;;21.50;12.32;;;0.40;99.90;;;;;;4914192;29;20046;-46
2022/11/21 02:48:09;;;;;;;21.27;13.00;;;0.40;99.90;;;;;;5016714;28;20497;-48
2022/11/21 02:50:37;;;;;;;24.38;13.93;;;0.40;99.90;;;;;;5032889;28;20545;-51
2022/11/21 02:53:05;;;;;;;23.13;13.30;;;0.50;99.90;;;;;;5032427;28;20045;-46
2022/11/21 02:55:31;;;;;;;24.13;13.05;;;0.50;99.90;;;;;;5032565;28;20041;-50
2022/11/21 02:57:57;;;;;;;24.30;13.38;;;0.60;99.90;;;;;;5045668;28;20098;-49
2022/11/21 03:00:23;;;;;;;25.10;14.70;;;0.60;99.90;;;;;;5052091;28;20044;-50
2022/11/21 03:02:49;;;;;;;25.17;13.88;;;0.50;99.90;;;;;;5052454;28;20044;-50
2022/11/21 03:05:17;;;;;;;25.17;13.80;;;0.60;99.90;;;;;;5052076;28;20064;-50
2022/11/21 03:07:43;;;;;;;24.38;14.52;;;0.50;99.90;;;;;;5052278;28;20045;-48
2022/11/21 03:10:09;;;;;;;23.05;14.02;;;0.60;99.90;;;;;;5052422;28;20041;-49
2022/11/21 03:12:36;;;;;;;22.88;13.23;;;0.50;99.90;;;;;;5052245;28;20039;-50
2022/11/21 03:15:07;;;;;;;28.25;15.15;;;0.60;99.90;;;;;;5052099;28;20084;-48
2022/11/21 03:17:33;;;;;;;26.00;13.80;;;0.60;99.90;;;;;;5052252;28;20036;-48
2022/11/21 03:19:59;;;;;;;25.27;15.02;;;0.50;99.90;;;;;;5052060;28;20043;-51
2022/11/21 03:22:25;;;;;;;29.60;14.55;;;0.50;99.90;;;;;;5052206;28;20075;-48
2022/11/21 03:24:50;;;;;;;28.15;14.93;;;0.60;99.90;;;;;;5051903;28;20036;-46
2022/11/21 03:27:16;;;;;;;28.38;14.02;;;0.60;99.90;;;;;;5052089;28;20067;-47
2022/11/21 03:29:42;;;;;;;25.90;14.63;;;0.50;99.90;;;;;;5052279;28;20503;-47
2022/11/21 03:32:07;;;;;;;27.45;14.38;;;0.60;99.90;;;;;;5051959;28;20113;-48
2022/11/21 03:34:33;;;;;;;25.58;14.07;;;0.60;99.90;;;;;;5051839;28;20048;-48
2022/11/21 03:36:59;;;;;;;28.42;16.13;;;0.60;99.90;;;;;;5051902;28;20037;-51
2022/11/21 03:39:24;;;;;;;29.35;15.23;;;0.60;99.90;;;;;;5034204;28;20477;-48
2022/11/21 03:41:50;;;;;;;25.25;13.82;;;0.30;99.90;;;;;;5051614;28;20477;-49
2022/11/21 03:44:16;;;;;;;28.35;15.52;;;0.30;99.90;;;;;;5051587;28;20041;-46
2022/11/21 03:46:44;;;;;;;27.83;16.40;;;0.40;99.90;;;;;;5051963;28;20041;-49
2022/11/21 03:49:11;;;;;;;30.58;15.90;;;0.40;99.90;;;;;;5051641;28;20029;-48
2022/11/21 03:51:38;;;;;;;28.98;15.82;;;0.30;99.90;;;;;;5051779;28;20087;-48
2022/11/21 03:54:04;;;;;;;28.50;15.00;;;0.40;99.90;;;;;;5051651;28;20486;-46
2022/11/21 03:56:30;;;;;;;29.33;15.98;;;0.40;99.90;;;;;;5031875;28;20048;-45
2022/11/21 03:58:56;;;;;;;25.77;14.88;;;0.40;99.90;;;;;;5013962;28;20547;-50
2022/11/21 04:01:22;;;;;;;32.40;16.48;;;0.30;99.90;;;;;;5031883;28;20389;-47
2022/11/21 04:03:48;;;;;;;30.85;16.30;;;0.40;99.90;;;;;;5031512;28;20463;-55
2022/11/21 04:06:16;;;;;;;29.52;16.35;;;0.30;99.90;;;;;;5031589;28;20120;-50
2022/11/21 04:08:43;;;;;;;28.00;16.80;;;0.40;99.90;;;;;;5031457;28;20119;-51
2022/11/21 04:11:09;;;;;;;29.50;16.40;;;0.40;99.90;;;;;;5034831;28;20133;-45
2022/11/21 04:13:35;;;;;;;27.17;14.25;;;0.30;99.90;;;;;;5035703;28;20076;-46
2022/11/21 04:16:01;;;;;;;32.97;18.25;;;0.30;99.90;;;;;;5017711;28;20461;-47
2022/11/21 04:18:26;;;;;;;30.92;17.02;;;0.30;99.90;;;;;;5035624;28;20196;-45
2022/11/21 04:21:00;;;;;;;26.48;15.93;;;0.30;99.90;;;;;;5035644;28;20120;-46
2022/11/21 04:23:26;;;;;;;31.90;17.58;;;0.20;99.90;;;;;;5035509;28;20038;-44
2022/11/21 04:25:53;;;;;;;30.40;16.83;;;0.10;99.90;;;;;;5035335;28;20116;-46
2022/11/21 04:28:19;;;;;;;27.63;17.02;;;0.10;99.90;;;;;;5035002;28;20037;-45
2022/11/21 04:30:44;;;;;;;32.47;17.55;;;0.30;99.90;;;;;;5035447;28;20067;-47
2022/11/21 04:33:12;;;;;;;34.83;18.30;;;0.40;99.90;;;;;;5035325;28;20394;-46
2022/11/21 04:35:38;;;;;;;34.03;17.88;;;0.40;99.90;;;;;;5035037;28;20042;-45
2022/11/21 04:38:04;;;;;;;31.35;17.65;;;0.50;99.90;;;;;;5034932;28;20456;-47
2022/11/21 04:40:29;;;;;;;34.88;17.88;;;0.50;99.90;;;;;;5035139;28;20045;-51
2022/11/21 04:42:55;;;;;;;37.70;18.80;;;0.50;99.90;;;;;;5034985;28;20037;-45
2022/11/21 04:45:21;;;;;;;32.63;18.45;;;0.60;99.90;;;;;;5034808;28;20042;-49
2022/11/21 04:47:48;;;;;;;33.65;17.92;;;0.60;99.90;;;;;;5034849;28;20040;-48
2022/11/21 04:50:15;;;;;;;33.08;18.08;;;0.50;99.90;;;;;;5035029;28;20049;-51
2022/11/21 04:52:41;;;;;;;35.05;18.20;;;0.50;99.90;;;;;;5034744;28;20065;-47
2022/11/21 04:55:08;;;;;;;36.22;19.15;;;0.40;99.90;;;;;;5034778;28;20037;-45
2022/11/21 04:57:33;;;;;;;31.70;18.38;;;0.40;99.90;;;;;;5045475;28;20370;-50
2022/11/21 04:59:59;;;;;;;33.10;17.25;;;0.40;99.90;;;;;;5054502;28;20044;-46
2022/11/21 05:02:25;;;;;;;32.50;17.10;;;0.40;99.90;;;;;;5054332;28;20045;-45
2022/11/21 05:04:51;;;;;;;31.95;17.48;;;0.20;99.90;;;;;;5054105;28;20056;-49
2022/11/21 05:07:17;;;;;;;34.47;19.02;;;0.30;99.90;;;;;;5054625;28;20134;-50
2022/11/21 05:09:43;;;;;;;30.98;17.45;;;0.40;99.90;;;;;;5054093;28;20485;-46
2022/11/21 05:14:54;;;;;;;34.08;17.77;;;0.30;99.90;;;;;;5054309;28;20087;-49
2022/11/21 05:17:20;;;;;;;29.65;16.05;;;0.20;99.90;;;;;;5054178;28;20507;-48
2022/11/21 05:19:46;;;;;;;28.02;14.93;;;0.20;99.90;;;;;;5035767;28;20049;-48
2022/11/21 05:22:12;;;;;;;29.85;16.23;;;0.20;99.90;;;;;;5035472;28;20072;-46
2022/11/21 05:24:38;;;;;;;29.55;16.48;;;0.30;99.90;;;;;;5054027;28;20033;-46
2022/11/21 05:27:04;;;;;;;30.92;16.77;;;0.30;99.90;;;;;;5054292;28;20499;-46
2022/11/21 05:29:30;;;;;;;30.52;16.98;;;0.20;99.90;;;;;;5035999;28;20083;-45
2022/11/21 05:31:55;;;;;;;25.15;13.68;;;0.20;99.90;;;;;;5054047;28;20076;-49
2022/11/21 05:34:22;;;;;;;24.33;13.57;;;0.20;99.90;;;;;;5053642;28;20485;-52
2022/11/21 05:36:47;;;;;;;24.25;13.00;;;0.20;99.90;;;;;;5053989;28;20045;-47
2022/11/21 05:39:14;;;;;;;25.02;12.68;;;0.20;99.90;;;;;;5053929;28;20032;-46
2022/11/21 05:41:41;;;;;;;27.05;13.88;;;0.20;99.90;;;;;;5053384;28;20045;-48
2022/11/21 05:44:06;;;;;;;27.60;13.50;;;0.10;99.90;;;;;;5035849;28;20069;-47
2022/11/21 05:46:32;;;;;;;27.60;13.32;;;0.20;99.90;;;;;;5053391;28;20063;-46
2022/11/21 05:48:58;;;;;;;25.10;11.57;;;0.20;99.90;;;;;;5053684;28;20065;-45
2022/11/21 05:51:24;;;;;;;26.58;13.05;;;0.20;99.90;;;;;;5053401;28;20041;-47
2022/11/21 05:53:49;;;;;;;26.35;12.27;;;0.30;99.90;;;;;;5053800;28;20496;-46
2022/11/21 05:56:18;;;;;;;25.50;14.40;;;0.20;99.90;;;;;;5053539;28;20033;-45
2022/11/21 05:58:44;;;;;;;26.13;13.25;;;0.20;99.90;;;;;;5033534;28;20111;-45
2022/11/21 06:01:11;;;;;;;25.65;12.57;;;0.20;99.90;;;;;;5033177;28;20524;-49
2022/11/21 06:03:39;;;;;;;28.52;12.75;;;0.00;99.90;;;;;;5033514;28;20056;-46
2022/11/21 06:06:06;;;;;;;24.70;12.35;;;0.00;99.90;;;;;;5033157;28;20395;-49
2022/11/21 06:08:37;;;;;;;30.58;13.65;;;-0.10;99.90;;;;;;5033317;28;20079;-47
2022/11/21 06:11:04;;;;;;;27.42;13.38;;;-0.10;99.90;;;;;;5033288;28;20053;-48
2022/11/21 06:13:32;;;;;;;28.90;13.88;;;-0.30;99.90;;;;;;5033400;28;20037;-47
2022/11/21 06:16:07;;;;;;;26.63;13.65;;;-0.30;99.90;;;;;;5033046;28;20859;-48
2022/11/21 06:18:43;;;;;;;23.40;12.23;;;-0.20;99.90;;;;;;5033033;28;20038;-45
2022/11/21 06:21:12;;;;;;;27.42;13.63;;;-0.30;99.90;;;;;;5032884;28;20041;-45
2022/11/21 06:23:37;;;;;;;26.88;14.13;;;-0.30;99.90;;;;;;5033189;28;20076;-48
2022/11/21 06:26:05;;;;;;;25.20;12.70;;;-0.30;99.90;;;;;;5015410;28;20454;-49
2022/11/21 06:28:36;;;;;;;26.27;12.43;;;-0.20;99.90;;;;;;5032913;28;20056;-46
2022/11/21 06:31:07;;;;;;;24.30;12.02;;;-0.30;99.90;;;;;;5033190;28;20034;-47
2022/11/21 06:33:34;;;;;;;28.30;13.95;;;-0.20;99.90;;;;;;5032933;28;20401;-45
2022/11/21 06:36:10;;;;;;;28.15;13.70;;;-0.20;99.90;;;;;;5032795;28;20045;-45
2022/11/21 06:38:36;;;;;;;28.33;12.70;;;-0.10;99.90;;;;;;5032803;28;20042;-47
2022/11/21 06:41:12;;;;;;;25.17;13.13;;;0.00;99.90;;;;;;5032580;28;20057;-45
2022/11/21 06:43:38;;;;;;;28.92;13.35;;;0.00;99.90;;;;;;5032546;28;20049;-46
2022/11/21 06:46:04;;;;;;;24.58;12.48;;;0.00;99.90;;;;;;5014872;28;20049;-45
2022/11/21 06:48:30;;;;;;;24.67;12.77;;;0.00;99.90;;;;;;5014974;28;20045;-46
2022/11/21 06:50:57;;;;;;;22.25;11.52;;;0.00;99.90;;;;;;5032186;28;20045;-47
2022/11/21 06:53:23;;;;;;;24.45;13.60;;;0.00;99.90;;;;;;5031548;28;20049;-47
2022/11/21 06:55:48;;;;;;;27.15;13.57;;;0.00;99.90;;;;;;5013871;28;20397;-47
2022/11/21 06:58:14;;;;;;;25.80;12.60;;;-0.10;99.90;;;;;;5047647;28;20029;-46
2022/11/21 07:00:40;;;;;;;24.83;12.40;;;-0.10;99.90;;;;;;5051138;28;20045;-45
2022/11/21 07:03:07;;;;;;;27.17;13.75;;;-0.10;99.90;;;;;;5051094;28;20077;-46
2022/11/21 07:05:32;;;;;;;28.25;14.95;;;-0.10;99.90;;;;;;5050882;28;20088;-49
2022/11/21 07:07:59;;;;;;;30.42;15.88;;;-0.20;99.90;;;;;;5050853;28;20041;-46
2022/11/21 07:10:25;;;;;;;27.65;15.52;;;-0.20;99.90;;;;;;5050951;28;20485;-46
2022/11/21 07:15:35;;;;;;;26.83;14.63;;;-0.20;99.90;;;;;;5050633;28;20060;-46
2022/11/21 07:18:01;;;;;;;40.78;17.73;;;-0.30;99.90;;;;;;5051359;28;20440;-50
2022/11/21 07:20:27;;;;;;;31.45;19.58;;;-0.30;99.90;;;;;;5051157;28;20049;-45
2022/11/21 07:22:54;;;;;;;35.70;20.02;;;-0.30;99.90;;;;;;5051889;28;20449;-47
2022/11/21 07:25:20;;;;;;;30.25;17.80;;;-0.20;99.90;;;;;;5033954;28;20047;-47
2022/11/21 07:27:46;;;;;;;31.70;18.55;;;-0.30;99.90;;;;;;5051758;28;20116;-45
2022/11/21 07:30:12;;;;;;;34.50;18.25;;;-0.30;99.90;;;;;;5051868;28;20083;-46
2022/11/21 07:32:38;;;;;;;31.88;17.65;;;-0.30;99.90;;;;;;5051741;28;20040;-46
2022/11/21 07:35:04;;;;;;;34.65;19.38;;;-0.30;99.90;;;;;;5051715;28;20354;-46
2022/11/21 07:37:29;;;;;;;33.38;18.67;;;-0.30;99.90;;;;;;5033014;28;20041;-47
2022/11/21 07:39:55;;;;;;;30.90;17.60;;;-0.20;99.90;;;;;;5046116;28;20041;-47
2022/11/21 07:42:21;;;;;;;30.27;17.98;;;-0.30;99.90;;;;;;5030948;28;20045;-46
2022/11/21 07:44:46;;;;;;;33.50;18.70;;;-0.20;99.90;;;;;;5031941;28;20053;-49
2022/11/21 07:47:12;;;;;;;32.00;18.63;;;-0.10;99.90;;;;;;5034943;28;20041;-47
2022/11/21 07:49:37;;;;;;;30.45;18.02;;;0.00;99.90;;;;;;5034759;28;20045;-46
2022/11/21 07:52:03;;;;;;;31.73;19.25;;;-0.10;99.90;;;;;;5034912;28;20041;-48
2022/11/21 07:54:29;;;;;;;33.70;18.30;;;-0.10;99.90;;;;;;5034694;28;20029;-49
2022/11/21 07:56:54;;;;;;;31.58;17.98;;;0.00;99.90;;;;;;5039681;28;20053;-49
2022/11/21 07:59:20;;;;;;;33.80;17.95;;;-0.10;99.90;;;;;;5054569;28;20045;-51
2022/11/21 08:01:46;;;;;;;30.58;17.83;;;0.00;99.90;;;;;;5036415;28;20041;-49
2022/11/21 08:04:12;;;;;;;30.63;17.85;;;0.10;99.90;;;;;;5054221;28;20485;-48
2022/11/21 08:06:37;;;;;;;34.97;18.38;;;0.00;99.90;;;;;;5054362;28;20485;-50
2022/11/21 08:09:03;;;;;;;36.00;18.70;;;0.10;99.90;;;;;;5036765;28;20036;-47
2022/11/21 08:11:31;;;;;;;33.92;18.38;;;0.20;99.90;;;;;;5054163;28;20045;-46
2022/11/21 08:13:58;;;;;;;31.83;18.75;;;0.30;99.90;;;;;;5054136;28;20044;-46
2022/11/21 08:16:26;;;;;;;34.08;20.17;;;0.30;99.90;;;;;;5054069;28;20123;-50
2022/11/21 08:18:53;;;;;;;37.58;19.80;;;0.40;99.90;;;;;;5054120;28;20045;-47
2022/11/21 08:21:18;;;;;;;33.17;19.63;;;0.50;99.90;;;;;;5054248;28;20045;-49
2022/11/21 08:23:44;;;;;;;33.20;19.92;;;0.60;99.90;;;;;;5054126;28;20120;-48
2022/11/21 08:26:10;;;;;;;33.72;19.10;;;0.60;99.90;;;;;;5053785;28;20044;-47
2022/11/21 08:28:35;;;;;;;33.25;17.52;;;0.70;99.90;;;;;;5053723;28;20512;-48
2022/11/21 08:31:05;;;;;;;36.42;19.65;;;0.70;99.90;;;;;;5053866;28;20052;-48
2022/11/21 08:33:32;;;;;;;35.35;19.35;;;0.90;99.90;;;;;;5053729;28;20041;-49
2022/11/21 08:35:58;;;;;;;31.95;18.98;;;0.80;99.90;;;;;;5053854;28;20091;-48
2022/11/21 08:38:23;;;;;;;30.60;17.92;;;0.90;99.90;;;;;;5053974;28;20045;-48
2022/11/21 08:42:01;;;;;;;34.17;18.00;;;1.00;99.90;;;;;;5053572;28;20044;-49
2022/11/21 08:43:34;;;;;;;32.25;18.02;;;0.90;99.90;;;;;;5053363;28;20060;-48
2022/11/21 08:46:00;;;;;;;32.72;17.83;;;1.00;99.90;;;;;;5035848;28;20048;-48
2022/11/21 08:48:26;;;;;;;30.58;17.25;;;1.00;99.90;;;;;;5053527;28;20123;-48
2022/11/21 08:50:51;;;;;;;31.75;19.15;;;0.90;99.90;;;;;;5035284;28;20052;-48
2022/11/21 08:53:17;;;;;;;33.10;18.85;;;1.00;99.90;;;;;;5035197;28;20045;-46
2022/11/21 08:55:43;;;;;;;31.50;17.83;;;1.00;99.90;;;;;;5052521;28;20392;-46
2022/11/21 08:58:11;;;;;;;32.97;17.83;;;1.00;99.90;;;;;;5052149;28;20057;-49
2022/11/21 09:00:37;;;;;;;30.10;17.42;;;1.00;99.90;;;;;;5053304;28;20037;-48
2022/11/21 09:03:05;;;;;;;30.45;18.45;;;1.10;99.90;;;;;;5053242;28;20477;-49
2022/11/21 09:05:32;;;;;;;32.35;18.55;;;1.10;99.90;;;;;;5053181;28;20049;-47
2022/11/21 09:07:58;;;;;;;30.92;17.65;;;1.10;99.90;;;;;;5035054;28;20491;-46
2022/11/21 09:10:28;;;;;;;29.33;17.98;;;1.00;99.90;;;;;;5052677;28;20044;-48
2022/11/21 09:12:57;;;;;;;33.70;18.15;;;1.20;99.90;;;;;;5052251;28;20489;-50
2022/11/21 09:18:09;;;;;;;34.10;18.48;;;1.30;99.90;;;;;;5052686;28;20492;-46
2022/11/21 09:20:41;;;;;;;30.25;16.60;;;1.20;99.90;;;;;;5052709;28;20140;-45
2022/11/21 09:23:09;;;;;;;32.60;17.42;;;1.30;99.90;;;;;;5052898;28;20052;-46
2022/11/21 09:25:35;;;;;;;31.08;17.67;;;1.30;99.90;;;;;;5052425;28;20045;-45
2022/11/21 09:28:02;;;;;;;29.98;17.02;;;1.30;99.90;;;;;;5052795;28;20041;-47
2022/11/21 09:30:27;;;;;;;31.20;19.05;;;1.30;99.90;;;;;;5052528;28;20037;-45
2022/11/21 09:32:57;;;;;;;29.80;17.27;;;1.30;99.90;;;;;;5052509;28;20041;-46
2022/11/21 09:35:23;;;;;;;32.22;17.73;;;1.30;99.90;;;;;;5034536;28;20040;-47
2022/11/21 09:37:50;;;;;;;31.42;18.05;;;1.30;99.90;;;;;;5052430;28;20037;-46
2022/11/21 09:40:16;;;;;;;30.35;17.95;;;1.40;99.90;;;;;;5052301;28;20060;-47
2022/11/21 09:42:57;;;;;;;30.40;17.65;;;1.50;99.90;;;;;;5052398;28;20126;-46
2022/11/21 09:45:27;;;;;;;32.50;17.83;;;1.40;99.90;;;;;;5052610;28;20037;-46
2022/11/21 09:47:54;;;;;;;30.75;18.35;;;1.30;99.90;;;;;;5052835;28;20065;-47
2022/11/21 09:50:31;;;;;;;30.42;18.98;;;1.40;99.90;;;;;;5052333;28;20043;-45
2022/11/21 09:53:02;;;;;;;33.85;19.15;;;1.40;99.90;;;;;;5052463;28;20052;-47
2022/11/21 09:55:33;;;;;;;30.25;18.23;;;1.60;99.90;;;;;;5052529;28;20067;-49
2022/11/21 09:58:24;;;;;;;32.33;18.27;;;1.50;99.90;;;;;;5038152;28;20462;-46
2022/11/21 10:00:51;;;;;;;29.23;18.00;;;1.50;99.90;;;;;;5032419;28;20046;-48
2022/11/21 10:03:19;;;;;;;30.00;17.67;;;1.60;99.90;;;;;;5032726;28;20072;-46
2022/11/21 10:05:52;;;;;;;29.42;17.23;;;1.70;99.90;;;;;;5014761;28;20397;-46
2022/11/21 10:08:45;;;;;;;30.40;17.08;;;1.70;99.90;;;;;;5032174;28;20103;-48
2022/11/21 10:11:19;;;;;;;;;;;1.70;99.90;;;;;;5033067;28;20413;-46
2022/11/21 10:14:16;;;;;;;26.02;14.00;;;1.80;99.90;;;;;;5032210;28;20353;-46
2022/11/21 10:16:58;;;;;;;27.95;14.10;;;1.90;99.90;;;;;;5031869;28;20541;-47
2022/11/21 10:19:47;;;;;;;25.42;14.10;;;1.80;99.90;;;;;;5032000;28;20045;-57
2022/11/21 10:22:22;;;;;;;30.13;14.98;;;1.80;99.90;;;;;;5013525;28;20060;-49
2022/11/21 10:25:20;;;;;;;27.17;13.80;;;1.80;99.90;;;;;;5031493;28;20037;-47
2022/11/21 10:27:57;;;;;;;25.27;13.85;;;1.70;99.90;;;;;;4987402;28;20045;-46
2022/11/21 10:30:23;;;;;;;28.50;14.73;;;1.60;99.90;;;;;;5032267;28;20034;-47
2022/11/21 10:32:58;;;;;;;25.15;14.35;;;1.60;99.90;;;;;;5032240;28;20050;-49
2022/11/21 10:35:57;;;;;;;24.42;13.75;;;1.60;99.90;;;;;;5032206;28;20041;-46
2022/11/21 10:38:28;;;;;;;27.33;15.43;;;1.40;99.90;;;;;;5014507;28;20103;-48
2022/11/21 10:41:04;;;;;;;26.70;15.40;;;1.40;99.90;;;;;;5031729;28;20046;-45
2022/11/21 10:46:20;;;;;;;25.23;14.60;;;1.50;99.90;;;;;;5032001;28;20124;-46
2022/11/21 10:48:59;;;;;;;28.38;14.20;;;1.50;99.90;;;;;;5031844;28;20601;-49
2022/11/21 10:51:50;;;;;;;26.45;14.30;;;1.40;99.90;;;;;;5031644;28;20042;-47
2022/11/21 10:54:31;;;;;;;25.80;14.30;;;1.50;99.90;;;;;;5031330;28;20060;-49
2022/11/21 10:57:19;;;;;;;26.50;14.00;;;1.60;99.90;;;;;;5039125;28;20047;-48
2022/11/21 11:00:12;;;;;;;28.88;15.63;;;1.80;99.90;;;;;;5023524;28;20171;-46
2022/11/21 11:02:38;;;;;;;;;;;2.00;99.90;;;;;;5041268;28;20452;-48
2022/11/21 11:05:19;;;;;;;26.90;13.70;;;2.20;99.90;;;;;;5021622;28;19929;-51
2022/11/21 11:08:04;;;;;;;25.67;14.48;;;2.30;99.90;;;;;;5040203;28;20056;-47
2022/11/21 11:10:31;;;;;;;26.85;13.95;;;2.50;99.90;;;;;;5040226;28;20037;-46
2022/11/21 11:16:08;;;;;;;26.63;15.05;;;2.50;99.90;;;;;;5034511;28;20099;-49
2022/11/21 11:18:40;;;;;;;28.77;16.02;;;2.70;99.90;;;;;;5041327;28;20037;-47
2022/11/21 11:21:21;;;;;;;26.17;14.30;;;2.80;99.90;;;;;;5040182;28;20493;-51
2022/11/21 11:23:49;;;;;;;23.88;13.88;;;3.10;99.90;;;;;;5023102;28;20091;-48
2022/11/21 11:26:29;;;;;;;25.63;13.70;;;3.20;99.90;;;;;;5041937;28;20080;-48
2022/11/21 11:29:15;;;;;;;21.92;13.02;;;3.30;99.90;;;;;;5041405;28;20056;-47
2022/11/21 11:32:03;;;;;;;23.02;13.80;;;3.20;99.90;;;;;;5042084;28;20509;-47
2022/11/21 11:34:36;;;;;;;24.00;13.77;;;3.30;99.90;;;;;;5042836;28;20083;-46
2022/11/21 11:37:19;;;;;;;20.90;11.43;;;3.30;99.90;;;;;;5042289;28;20128;-48
2022/11/21 11:39:57;;;;;;;20.27;10.65;;;3.30;99.90;;;;;;5040900;28;20388;-48
2022/11/21 11:48:38;;;;;;;;;;;3.50;99.90;;;;;;5032457;28;20099;-47
2022/11/21 11:51:15;;;;;;;17.95;9.52;;;3.50;99.90;;;;;;5031898;28;19917;-47
2022/11/21 11:53:47;;;;;;;19.90;9.80;;;3.60;99.90;;;;;;5031826;28;20046;-47
2022/11/21 11:56:37;;;;;;;22.83;11.07;;;3.80;99.90;;;;;;5014237;28;20418;-49
2022/11/21 11:59:08;;;;;;;21.00;10.05;;;3.70;99.90;;;;;;5031570;28;20056;-46
2022/11/21 12:01:37;;;;;;;17.77;9.70;;;3.80;99.90;;;;;;5031452;28;20081;-47
2022/11/21 12:04:20;;;;;;;18.40;9.40;;;3.80;99.90;;;;;;5031251;28;20049;-49
2022/11/21 12:07:14;;;;;;;20.33;9.38;;;3.70;99.90;;;;;;5030949;28;20085;-49
2022/11/21 12:10:25;;;;;;;16.40;9.43;;;3.60;99.90;;;;;;5031563;28;20041;-46
2022/11/21 12:13:05;;;;;;;17.30;9.05;;;3.50;99.90;;;;;;4951114;29;20114;-50
2022/11/21 12:15:48;;;;;;;18.98;10.07;;;3.40;99.90;;;;;;5022639;28;20056;-47
2022/11/21 12:18:14;;;;;;;18.58;9.32;;;3.30;99.90;;;;;;5013672;28;20046;-47
2022/11/21 12:21:22;;;;;;;18.33;9.93;;;3.20;99.90;;;;;;5031422;28;20053;-46
2022/11/21 12:23:56;;;;;;;18.83;9.38;;;3.10;99.90;;;;;;5030501;28;20113;-47
2022/11/21 12:26:30;;;;;;;18.35;9.40;;;3.10;99.90;;;;;;5031362;28;20055;-46
2022/11/21 12:29:04;;;;;;;18.50;9.30;;;3.10;99.90;;;;;;5031307;28;20072;-48
2022/11/21 12:31:54;;;;;;;18.02;9.38;;;3.10;99.90;;;;;;5033399;28;20045;-50
2022/11/21 12:34:41;;;;;;;17.65;9.27;;;3.20;99.90;;;;;;5034901;28;20045;-49
2022/11/21 12:37:12;;;;;;;17.25;9.00;;;3.10;99.90;;;;;;5034875;28;20115;-47
2022/11/21 12:40:03;;;;;;;16.65;8.63;;;3.10;99.90;;;;;;5035081;28;20037;-48
2022/11/21 12:42:55;;;;;;;17.13;8.60;;;3.20;99.90;;;;;;5034749;28;20042;-48
2022/11/21 12:45:49;;;;;;;17.55;8.80;;;3.30;99.90;;;;;;5008443;28;20049;-48
2022/11/21 12:54:34;;;;;;;17.73;9.27;;;3.30;99.90;;;;;;5039290;28;20067;-47
2022/11/21 12:57:02;;;;;;;16.60;8.30;;;3.40;99.90;;;;;;5040528;28;20037;-47
2022/11/21 12:59:33;;;;;;;16.13;8.45;;;3.40;99.90;;;;;;5053233;28;20041;-48
2022/11/21 13:02:04;;;;;;;15.10;8.20;;;3.40;99.90;;;;;;5050432;28;20037;-47
2022/11/21 13:04:37;;;;;;;15.85;8.35;;;3.40;99.90;;;;;;5054083;28;20295;-48
2022/11/21 13:07:04;;;;;;;17.52;9.10;;;3.40;99.90;;;;;;5054051;28;20493;-46
2022/11/21 13:09:39;;;;;;;16.13;8.07;;;3.50;99.90;;;;;;5053867;28;20041;-47
2022/11/21 13:12:20;;;;;;;15.80;8.75;;;3.50;99.90;;;;;;5053893;28;20051;-49
2022/11/21 13:15:01;;;;;;;17.45;8.70;;;3.50;99.90;;;;;;5053815;28;20740;-48
2022/11/21 13:17:29;;;;;;;15.80;8.48;;;3.50;99.90;;;;;;5054215;28;20176;-47
2022/11/21 13:20:03;;;;;;;16.58;8.55;;;3.60;99.90;;;;;;5054175;28;20119;-48